Latest Weather Observations for Cape Bruny AWS

IDT60801

Issued at 11:31 am EST Monday 27 April 2015 (issued every 30 minutes, with the page automatically refreshed every 10 minutes)

About weather observations | Map of weather stations | Latest weather observations for TAS | Other Formats
Station Details ID: 094198 Name: CAPE BRUNY (CAPE BRUNY) Lat: -43.49 Lon: 147.14 Height: 59.7 m
Data from the previous 72 hours. | See also: Recent months at Cape Bruny AWS
Date/Time
EST
Temp
°C
App
Temp
°C
Dew
Point
Rel
Hum
%
Delta-T
°C
Wind Press
QNH
hPa
Press
MSL
hPa
Rain
since 9 am
mm
Dir
 
Spd
km/h
Gust
km/h
Spd
kts
Gust
kts
27/11:30am 9.8 1.9 7.7 87 1.0 WSW 39 50 21 27 1019.4 1019.4 0.2
27/11:00am 9.7 2.9 7.6 87 1.0 WSW 33 46 18 25 1019.0 1019.1 0.0
27/10:30am 10.4 3.1 7.3 81 1.5 WSW 35 48 19 26 1018.7 1018.8 0.0
27/10:00am 10.5 2.8 7.0 79 1.7 WSW 37 54 20 29 1018.3 1018.3 0.0
27/09:30am 9.9 1.9 7.5 85 1.1 W 39 52 21 28 1018.0 1018.0 0.0
27/09:00am 10.3 0.7 6.3 76 1.9 WSW 46 59 25 32 1017.5 1017.5 2.4
27/08:30am 10.5 1.2 4.9 68 2.5 WSW 43 54 23 29 1017.3 1017.3 2.4
27/08:00am 10.5 1.3 5.5 71 2.3 WSW 43 59 23 32 1016.9 1016.9 2.4
27/07:54am 10.3 2.3 5.7 73 2.1 WSW 37 57 20 31 1016.9 1016.9 2.4
27/07:30am 10.2 2.1 5.2 71 2.3 WSW 37 50 20 27 1016.7 1016.7 2.4
27/07:00am 9.7 1.5 6.6 81 1.4 W 39 48 21 26 1016.2 1016.2 2.4
27/06:50am 10.0 2.2 6.5 79 1.6 W 37 56 20 30 1016.0 1016.0 2.4
27/06:30am 9.2 0.2 6.3 82 1.3 WSW 43 54 23 29 1015.8 1015.8 2.4
27/06:00am 9.2 0.2 7.2 87 0.9 WSW 44 56 24 30 1015.8 1015.8 2.4
27/05:30am 9.5 0.6 6.9 84 1.2 W 43 56 23 30 1015.4 1015.4 2.4
27/05:17am 9.2 0.4 7.2 87 0.9 WSW 43 61 23 33 1015.3 1015.3 2.4
27/05:00am 9.4 -0.1 6.7 83 1.3 WSW 46 56 25 30 1015.2 1015.2 2.4
27/04:30am 9.4 -0.1 6.7 83 1.3 WSW 46 57 25 31 1014.9 1014.9 2.2
27/04:04am 8.7 -0.2 6.7 87 0.9 WSW 43 61 23 33 1014.7 1014.7 2.2
27/04:00am 8.5 -1.1 6.3 86 1.0 WSW 46 61 25 33 1014.7 1014.7 2.2
27/03:52am 9.1 0.6 7.1 87 0.9 W 41 61 22 33 1014.6 1014.6 2.2
27/03:30am 9.6 0.9 6.1 79 1.6 WSW 41 56 22 30 1014.5 1014.5 2.0
27/03:11am 9.6 1.5 6.9 83 1.3 W 39 57 21 31 1014.5 1014.5 2.0
27/03:00am 9.4 1.6 6.7 83 1.3 W 37 54 20 29 1014.5 1014.5 2.0
27/02:30am 9.6 2.7 6.3 80 1.5 W 32 41 17 22 1014.6 1014.6 2.0
27/02:00am 10.2 1.1 6.0 75 1.9 WSW 43 54 23 29 1014.8 1014.8 2.0
27/01:47am 10.0 2.0 5.6 74 2.0 W 37 59 20 32 1014.6 1014.6 2.0
27/01:30am 10.1 0.9 6.3 77 1.8 W 44 56 24 30 1014.5 1014.5 2.0
27/01:00am 10.4 -0.2 5.2 70 2.4 WSW 50 61 27 33 1014.4 1014.4 2.0
27/12:30am 10.4 0.1 4.8 68 2.5 WSW 48 63 26 34 1014.3 1014.3 2.0
27/12:00am 9.9 -0.7 4.9 71 2.3 WSW 50 61 27 33 1014.2 1014.2 2.0
 
Date/Time
EST
Temp
°C
App
Temp
°C
Dew
Point
Rel
Hum
%
Delta-T
°C
Wind Press
QNH
hPa
Press
MSL
hPa
Rain
since 9 am
mm
Dir
 
Spd
km/h
Gust
km/h
Spd
kts
Gust
kts
26/11:30pm 10.1 0.8 5.1 71 2.3 WSW 43 61 23 33 1014.2 1014.2 2.0
26/11:00pm 9.4 2.5 6.5 82 1.3 W 32 50 17 27 1014.2 1014.2 2.0
26/10:59pm 9.5 2.6 6.6 82 1.4 W 32 50 17 27 1014.3 1014.3 2.0
26/10:30pm 8.9 0.3 6.7 86 1.0 WSW 41 50 22 27 1014.2 1014.2 2.0
26/10:04pm 9.3 -0.2 6.6 83 1.3 WSW 46 65 25 35 1014.2 1014.2 2.0
26/10:00pm 9.7 0.7 6.2 79 1.6 WSW 43 56 23 30 1014.3 1014.3 2.0
26/09:30pm 9.4 0.2 5.4 76 1.8 WSW 43 54 23 29 1014.3 1014.3 2.0
26/09:00pm 8.9 0.6 6.0 82 1.3 WSW 39 54 21 29 1014.2 1014.2 2.0
26/08:30pm 9.9 0.7 5.5 74 2.0 WSW 43 57 23 31 1013.7 1013.7 1.8
26/08:00pm 9.7 2.3 6.6 81 1.5 W 35 44 19 24 1013.6 1013.6 1.8
26/07:30pm 9.4 0.9 6.8 84 1.2 WSW 41 54 22 29 1013.5 1013.5 1.8
26/07:18pm 9.2 1.9 7.0 86 1.0 W 35 54 19 29 1013.5 1013.5 1.8
26/07:00pm 9.3 1.6 7.3 87 0.9 W 37 52 20 28 1013.3 1013.3 1.8
26/06:37pm 9.6 2.3 7.0 84 1.2 WSW 35 59 19 32 1012.9 1012.9 1.8
26/06:30pm 9.5 2.8 7.3 86 1.0 WSW 32 41 17 22 1012.8 1012.8 1.8
26/06:00pm 9.2 0.7 7.0 86 1.0 WSW 41 50 22 27 1012.6 1012.6 1.6
26/05:30pm 9.2 0.1 7.0 86 1.0 WSW 44 65 24 35 1012.2 1012.2 1.6
26/05:06pm 9.4 1.3 7.0 85 1.1 WSW 39 57 21 31 1012.0 1012.0 1.2
26/05:00pm 9.6 1.1 6.9 83 1.3 WSW 41 52 22 28 1011.8 1011.8 1.2
26/04:36pm 9.5 1.8 7.3 86 1.0 WSW 37 56 20 30 1011.6 1011.6 1.2
26/04:30pm 9.6 2.5 7.9 89 0.8 WSW 35 50 19 27 1011.6 1011.6 1.2
26/04:24pm 9.4 3.2 7.7 89 0.8 W 30 50 16 27 1011.5 1011.5 1.2
26/04:00pm 9.8 2.7 7.9 88 0.9 W 35 44 19 24 1011.4 1011.4 0.8
26/03:30pm 9.7 1.9 8.1 90 0.8 WSW 39 57 21 31 1011.2 1011.2 0.8
26/03:20pm 10.0 3.4 7.9 87 1.0 W 32 50 17 27 1011.2 1011.2 0.6
26/03:00pm 9.8 1.9 7.9 88 0.9 W 39 56 21 30 1011.0 1011.0 0.6
26/02:30pm 10.9 2.8 7.0 77 1.9 WSW 39 50 21 27 1010.6 1010.6 0.0
26/02:00pm 12.3 6.8 5.9 65 3.0 W 24 33 13 18 1010.6 1010.6 0.0
26/01:30pm 11.9 6.9 6.6 70 2.5 WNW 22 28 12 15 1010.5 1010.5 0.0
26/01:00pm 11.8 6.3 5.7 66 2.8 W 24 35 13 19 1010.7 1010.7 0.0
26/12:30pm 12.2 7.1 5.8 65 3.0 WNW 22 30 12 16 1010.8 1010.8 0.0
26/12:00pm 13.1 7.7 6.2 63 3.3 WNW 24 33 13 18 1011.2 1011.2 0.0
26/11:30am 11.8 4.6 6.1 68 2.7 WNW 33 43 18 23 1011.4 1011.4 0.0
26/11:00am 11.6 4.5 5.5 66 2.8 WNW 32 43 17 23 1011.6 1011.6 0.0
26/10:30am 11.2 5.6 5.3 67 2.7 WNW 24 30 13 16 1011.8 1011.8 0.0
26/10:00am 11.4 6.6 4.4 62 3.2 WNW 19 28 10 15 1012.1 1012.1 0.0
26/09:30am 10.4 6.0 4.5 67 2.6 WNW 17 22 9 12 1012.4 1012.4 0.0
26/09:00am 9.8 5.3 4.4 69 2.4 WNW 17 20 9 11 1012.6 1012.6 2.0
26/08:30am 9.3 3.8 4.1 70 2.3 WNW 22 30 12 16 1012.7 1012.7 2.0
26/08:00am 9.3 3.3 5.1 75 1.9 W 26 33 14 18 1012.9 1012.9 2.0
26/07:30am 9.2 1.7 4.6 73 2.0 W 33 44 18 24 1012.7 1012.7 2.0
26/07:00am 9.0 2.3 3.8 70 2.3 W 28 33 15 18 1012.3 1012.3 2.0
26/06:30am 8.8 1.4 4.0 72 2.1 W 32 44 17 24 1012.2 1012.2 2.0
26/06:00am 8.8 3.8 4.8 76 1.8 WNW 20 28 11 15 1012.2 1012.2 2.0
26/05:30am 8.7 4.1 5.4 80 1.5 W 19 26 10 14 1012.3 1012.3 2.0
26/05:00am 8.3 4.4 5.4 82 1.3 WNW 15 20 8 11 1012.3 1012.3 2.0
26/04:30am 8.6 4.1 5.9 83 1.2 WNW 19 22 10 12 1012.3 1012.3 2.0
26/04:00am 8.3 3.0 5.2 81 1.4 W 22 30 12 16 1012.4 1012.4 2.0
26/03:30am 8.2 2.7 5.8 85 1.1 WSW 24 33 13 18 1012.6 1012.6 2.0
26/03:12am 8.3 2.1 6.1 86 1.0 WSW 28 41 15 22 1012.5 1012.5 2.0
26/03:00am 8.2 4.4 6.0 86 1.0 WSW 15 20 8 11 1012.5 1012.5 2.0
26/02:30am 8.6 4.4 5.9 83 1.2 WSW 17 20 9 11 1012.7 1012.7 2.0
26/02:00am 8.4 4.1 5.3 81 1.4 W 17 22 9 12 1013.0 1013.0 2.0
26/01:30am 8.5 2.9 5.6 82 1.3 W 24 28 13 15 1013.0 1013.0 2.0
26/01:00am 8.8 4.1 6.1 83 1.2 W 20 28 11 15 1013.0 1013.0 2.0
26/12:30am 8.7 4.1 6.3 85 1.1 W 20 26 11 14 1013.0 1013.0 2.0
26/12:00am 8.3 5.9 5.2 81 1.4 SW 7 15 4 8 1013.1 1013.1 2.0
 
Date/Time
EST
Temp
°C
App
Temp
°C
Dew
Point
Rel
Hum
%
Delta-T
°C
Wind Press
QNH
hPa
Press
MSL
hPa
Rain
since 9 am
mm
Dir
 
Spd
km/h
Gust
km/h
Spd
kts
Gust
kts
25/11:30pm 8.3 4.1 5.9 85 1.1 WSW 17 24 9 13 1013.2 1013.2 2.0
25/11:00pm 8.6 4.0 6.4 86 1.0 WSW 20 26 11 14 1013.3 1013.3 2.0
25/10:30pm 8.8 4.9 7.1 89 0.8 WNW 17 22 9 12 1013.4 1013.4 2.0
25/10:00pm 8.8 4.3 6.8 87 0.9 W 20 30 11 16 1013.6 1013.6 2.0
25/09:30pm 8.8 5.9 6.4 85 1.1 S 11 17 6 9 1013.6 1013.6 2.0
25/09:00pm 8.5 6.4 6.5 87 0.9 S 7 11 4 6 1013.6 1013.6 2.0
25/08:30pm 8.1 5.2 6.4 89 0.8 SSE 11 15 6 8 1013.4 1013.4 2.0
25/08:00pm 8.2 5.3 6.7 90 0.7 SSE 11 15 6 8 1013.5 1013.5 2.0
25/07:30pm 8.6 5.5 7.1 90 0.7 SSW 13 22 7 12 1013.4 1013.4 2.0
25/07:00pm 8.5 5.7 7.0 90 0.7 SW 11 15 6 8 1013.3 1013.3 1.8
25/06:30pm 8.5 4.5 6.8 89 0.8 WSW 17 24 9 13 1013.1 1013.1 1.4
25/06:00pm 8.9 4.4 7.0 88 0.9 WSW 20 28 11 15 1012.7 1012.7 0.4
25/05:30pm 9.8 6.4 6.0 77 1.8 SSW 13 22 7 12 1012.2 1012.2 0.2
25/05:00pm 10.0 6.3 6.2 77 1.8 SW 15 24 8 13 1012.0 1012.0 0.2
25/04:30pm 9.9 5.7 5.5 74 2.0 WSW 17 24 9 13 1011.8 1011.8 0.2
25/04:00pm 10.4 4.8 5.6 72 2.2 SW 24 32 13 17 1011.7 1011.7 0.2
25/03:30pm 9.6 4.8 7.2 85 1.1 WSW 22 33 12 18 1011.5 1011.5 0.2
25/03:00pm 10.8 6.4 6.4 74 2.1 WSW 19 35 10 19 1011.2 1011.2 0.0
25/02:30pm 11.9 7.9 6.8 71 2.4 SW 17 32 9 17 1011.1 1011.1 0.0
25/02:00pm 11.2 8.0 6.9 75 2.1 WSW 13 17 7 9 1011.0 1011.0 0.0
25/01:30pm 11.4 7.8 6.7 73 2.2 W 15 19 8 10 1010.8 1010.8 0.0
25/01:00pm 11.1 8.4 7.2 77 1.9 SW 11 17 6 9 1010.8 1010.8 0.0
25/12:30pm 11.6 8.1 7.1 74 2.2 SW 15 20 8 11 1010.8 1010.8 0.0
25/12:00pm 11.3 7.2 6.4 72 2.3 WSW 17 28 9 15 1010.9 1010.9 0.0
25/11:30am 10.7 6.1 5.7 71 2.3 WSW 19 26 10 14 1010.8 1010.8 0.0
25/11:00am 10.7 5.7 6.3 74 2.1 SW 22 33 12 18 1010.8 1010.8 0.0
25/10:30am 11.3 6.7 5.4 67 2.7 WSW 19 28 10 15 1010.7 1010.7 0.0
25/10:00am 11.1 6.3 5.8 70 2.5 SW 20 28 11 15 1010.5 1010.5 0.0
25/09:30am 10.3 5.5 4.9 69 2.4 SW 19 26 10 14 1010.3 1010.3 0.0
25/09:00am 9.8 4.3 5.8 76 1.8 SW 24 35 13 19 1010.3 1010.3 2.4
25/08:30am 9.8 4.6 5.6 75 1.9 SW 22 32 12 17 1010.2 1010.2 2.4
25/08:00am 9.6 4.5 5.8 77 1.7 SW 22 33 12 18 1009.9 1009.9 2.4
25/07:30am 9.6 3.4 6.1 79 1.6 SW 28 37 15 20 1009.3 1009.3 2.4
25/07:00am 9.8 4.9 6.7 81 1.5 SW 22 37 12 20 1008.7 1008.7 2.4
25/06:30am 10.0 4.9 7.6 85 1.2 SW 24 39 13 21 1008.1 1008.1 2.4
25/06:00am 10.3 6.1 8.1 86 1.1 SW 20 32 11 17 1007.5 1007.5 2.4
25/05:30am 10.3 6.2 8.7 90 0.8 SW 20 37 11 20 1007.0 1007.0 2.4
25/05:00am 10.4 6.1 9.2 92 0.6 SSW 22 39 12 21 1006.8 1006.8 2.2
25/04:30am 10.6 5.9 9.4 92 0.6 SW 24 35 13 19 1006.4 1006.4 1.2
25/04:00am 10.8 4.5 9.1 89 0.9 SW 32 46 17 25 1006.1 1006.1 0.8
25/03:30am 11.3 6.5 8.7 84 1.3 SW 24 32 13 17 1005.6 1005.6 0.8
25/03:00am 11.2 7.2 8.9 86 1.1 WSW 20 30 11 16 1005.5 1005.5 0.8
25/02:30am 11.1 7.2 9.5 90 0.8 WSW 20 28 11 15 1005.4 1005.4 0.8
25/02:00am 11.0 6.3 9.4 90 0.8 WSW 24 32 13 17 1005.3 1005.3 0.6
25/01:30am 10.8 6.1 9.2 90 0.8 WSW 24 33 13 18 1005.3 1005.3 0.6
25/01:00am 11.0 6.4 9.6 91 0.7 WSW 24 32 13 17 1005.2 1005.2 0.6
25/12:30am 10.7 5.2 9.3 91 0.7 SW 28 37 15 20 1005.2 1005.2 0.6
25/12:00am 11.1 5.4 9.7 91 0.7 WSW 30 39 16 21 1004.9 1004.9 0.4
 
Date/Time
EST
Temp
°C
App
Temp
°C
Dew
Point
Rel
Hum
%
Delta-T
°C
Wind Press
QNH
hPa
Press
MSL
hPa
Rain
since 9 am
mm
Dir
 
Spd
km/h
Gust
km/h
Spd
kts
Gust
kts
24/11:30pm 11.4 5.6 9.3 87 1.1 WSW 30 43 16 23 1004.7 1004.6 0.4
24/11:00pm 10.8 5.0 9.4 91 0.7 WSW 30 35 16 19 1004.6 1004.5 0.2
24/10:30pm 11.1 4.4 9.7 91 0.7 WSW 35 44 19 24 1004.6 1004.5 0.2
24/10:00pm 11.1 4.9 9.4 89 0.9 WSW 32 43 17 23 1004.6 1004.5 0.2
24/09:30pm 11.9 6.1 9.5 85 1.2 WSW 30 37 16 20 1004.4 1004.3 0.0
24/09:00pm 11.7 5.5 9.4 86 1.2 WSW 32 41 17 22 1004.1 1004.0 0.0
24/08:30pm 11.4 5.3 9.8 90 0.8 WSW 32 41 17 22 1003.9 1003.8 0.0
24/08:00pm 11.2 5.1 9.6 90 0.8 WSW 32 41 17 22 1003.6 1003.5 0.0
24/07:30pm 11.6 6.3 9.9 89 0.9 WSW 28 37 15 20 1003.6 1003.5 0.0
24/07:00pm 11.8 6.5 10.0 89 0.9 WSW 28 39 15 21 1003.5 1003.4 0.0
24/06:30pm 12.1 7.6 10.2 88 1.0 WSW 24 37 13 20 1003.2 1003.1 0.0
24/06:00pm 12.3 7.2 9.3 82 1.5 WSW 26 37 14 20 1002.8 1002.7 0.0
24/05:30pm 12.5 7.2 9.7 83 1.4 WSW 28 37 15 20 1002.4 1002.3 0.0
24/05:00pm 12.6 7.2 9.6 82 1.5 WSW 28 35 15 19 1002.1 1002.0 0.0
24/04:30pm 12.9 8.0 9.9 82 1.5 WSW 26 35 14 19 1001.9 1001.8 0.0
24/04:00pm 13.2 9.0 9.6 79 1.9 WSW 22 32 12 17 1001.7 1001.7 0.0
24/03:30pm 13.9 10.3 10.5 80 1.8 SW 20 32 11 17 1002.0 1001.9 0.0
24/03:00pm 14.0 10.7 10.8 81 1.7 SW 19 28 10 15 1002.1 1002.0 0.0
24/02:30pm 14.3 10.9 10.7 79 1.9 WSW 19 26 10 14 1002.3 1002.2 0.0
24/02:00pm 14.6 12.0 10.8 78 2.0 SW 15 20 8 11 1002.3 1002.2 0.0
24/01:30pm 14.1 11.8 10.5 79 1.9 WSW 13 19 7 10 1002.5 1002.4 0.0
24/01:00pm 14.5 13.1 10.9 79 1.9 SSW 9 17 5 9 1002.6 1002.5 0.0
24/12:30pm 14.4 13.1 11.2 81 1.7 WNW 9 11 5 6 1003.2 1003.1 0.0
24/12:00pm 13.7 12.3 10.9 83 1.5 W 9 11 5 6 1003.4 1003.3 0.0

Other Formats:

Comma delimited format used in spreadsheet applications
http://www.bom.gov.au/fwo/IDT60801/IDT60801.95967.axf

JavaScript Object Notation format (JSON) in row-major order
http://www.bom.gov.au/fwo/IDT60801/IDT60801.95967.json